sensor_id;sensor_type;location;lat;lon;timestamp;pressure;altitude;pressure_sealevel;temperature;humidity
54146;BME280;40052;49.422;7.738;2022-07-10T00:01:27;74535.28;;;-145.25;58.23
54146;BME280;40052;49.422;7.738;2022-07-10T00:03:52;74541.28;;;-145.25;58.31
54146;BME280;40052;49.422;7.738;2022-07-10T00:06:20;74567.34;;;-145.25;58.55
54146;BME280;40052;49.422;7.738;2022-07-10T00:08:48;74591.38;;;-145.25;58.79
54146;BME280;40052;49.422;7.738;2022-07-10T00:11:13;74583.38;;;-145.25;58.81
54146;BME280;40052;49.422;7.738;2022-07-10T00:13:38;74595.41;;;-145.25;59.25
54146;BME280;40052;49.422;7.738;2022-07-10T00:16:07;74591.38;;;-145.25;59.29
54146;BME280;40052;49.422;7.738;2022-07-10T00:18:32;74589.38;;;-145.25;58.71
54146;BME280;40052;49.422;7.738;2022-07-10T00:21:00;74591.38;;;-145.25;58.87
54146;BME280;40052;49.422;7.738;2022-07-10T00:23:27;74607.41;;;-145.25;59.00
54146;BME280;40052;49.422;7.738;2022-07-10T00:25:55;74619.44;;;-145.25;59.04
54146;BME280;40052;49.422;7.738;2022-07-10T00:28:20;74617.44;;;-145.25;59.14
54146;BME280;40052;49.422;7.738;2022-07-10T00:30:48;74595.41;;;-145.25;58.48
54146;BME280;40052;49.422;7.738;2022-07-10T00:33:18;74623.44;;;-145.25;58.47
54146;BME280;40052;49.422;7.738;2022-07-10T00:35:46;74627.47;;;-145.25;58.55
54146;BME280;40052;49.422;7.738;2022-07-10T00:38:13;74633.47;;;-145.25;58.39
54146;BME280;40052;49.422;7.738;2022-07-10T00:40:42;74649.50;;;-145.25;58.94
54146;BME280;40052;49.422;7.738;2022-07-10T00:43:11;74667.53;;;-145.25;59.11
54146;BME280;40052;49.422;7.738;2022-07-10T00:45:37;74717.63;;;-145.25;60.48
54146;BME280;40052;49.422;7.738;2022-07-10T00:48:02;74707.63;;;-145.25;60.42
54146;BME280;40052;49.422;7.738;2022-07-10T00:50:28;74723.66;;;-145.25;60.47
54146;BME280;40052;49.422;7.738;2022-07-10T00:52:57;74725.66;;;-145.25;61.10
54146;BME280;40052;49.422;7.738;2022-07-10T00:55:22;74753.72;;;-145.25;61.58
54146;BME280;40052;49.422;7.738;2022-07-10T00:57:48;74763.72;;;-145.25;61.88
54146;BME280;40052;49.422;7.738;2022-07-10T01:00:14;74773.75;;;-145.25;62.35
54146;BME280;40052;49.422;7.738;2022-07-10T01:02:41;74777.75;;;-145.25;62.44
54146;BME280;40052;49.422;7.738;2022-07-10T01:05:07;74785.78;;;-145.25;62.49
54146;BME280;40052;49.422;7.738;2022-07-10T01:07:35;74781.75;;;-145.25;62.51
54146;BME280;40052;49.422;7.738;2022-07-10T01:10:05;74775.75;;;-145.25;62.23
54146;BME280;40052;49.422;7.738;2022-07-10T01:12:33;74791.78;;;-145.25;62.71
54146;BME280;40052;49.422;7.738;2022-07-10T01:14:59;74819.84;;;-145.25;63.34
54146;BME280;40052;49.422;7.738;2022-07-10T01:17:26;74827.84;;;-145.25;63.88
54146;BME280;40052;49.422;7.738;2022-07-10T01:19:54;74833.88;;;-145.25;63.89
54146;BME280;40052;49.422;7.738;2022-07-10T01:22:21;74825.84;;;-145.25;63.54
54146;BME280;40052;49.422;7.738;2022-07-10T01:24:49;74819.84;;;-145.25;63.21
54146;BME280;40052;49.422;7.738;2022-07-10T01:27:14;74819.84;;;-145.25;63.04
54146;BME280;40052;49.422;7.738;2022-07-10T01:29:40;74821.84;;;-145.25;63.33
54146;BME280;40052;49.422;7.738;2022-07-10T01:32:06;74821.84;;;-145.25;63.34
54146;BME280;40052;49.422;7.738;2022-07-10T01:34:34;74841.88;;;-145.25;63.82
54146;BME280;40052;49.422;7.738;2022-07-10T01:36:59;74833.88;;;-145.25;63.78
54146;BME280;40052;49.422;7.738;2022-07-10T01:39:25;74847.91;;;-145.25;63.69
54146;BME280;40052;49.422;7.738;2022-07-10T01:41:53;74835.88;;;-145.25;63.80
54146;BME280;40052;49.422;7.738;2022-07-10T01:44:18;74835.88;;;-145.25;63.34
54146;BME280;40052;49.422;7.738;2022-07-10T01:46:45;74835.88;;;-145.25;63.25
54146;BME280;40052;49.422;7.738;2022-07-10T01:49:13;74845.91;;;-145.25;63.26
54146;BME280;40052;49.422;7.738;2022-07-10T01:51:39;74831.88;;;-145.25;63.35
54146;BME280;40052;49.422;7.738;2022-07-10T01:54:04;74821.84;;;-145.25;63.23
54146;BME280;40052;49.422;7.738;2022-07-10T01:56:29;74809.81;;;-145.25;62.74
54146;BME280;40052;49.422;7.738;2022-07-10T01:58:55;74797.78;;;-145.25;62.43
54146;BME280;40052;49.422;7.738;2022-07-10T02:01:20;74815.84;;;-145.25;62.51
54146;BME280;40052;49.422;7.738;2022-07-10T02:03:45;74835.88;;;-145.25;62.90
54146;BME280;40052;49.422;7.738;2022-07-10T02:06:32;74835.88;;;-145.25;62.73
54146;BME280;40052;49.422;7.738;2022-07-10T02:08:57;74811.81;;;-145.25;62.73
54146;BME280;40052;49.422;7.738;2022-07-10T02:11:23;74803.81;;;-145.25;61.89
54146;BME280;40052;49.422;7.738;2022-07-10T02:13:50;74823.84;;;-145.25;62.16
54146;BME280;40052;49.422;7.738;2022-07-10T02:16:16;74833.88;;;-145.25;62.71
54146;BME280;40052;49.422;7.738;2022-07-10T02:18:41;74817.84;;;-145.25;62.42
54146;BME280;40052;49.422;7.738;2022-07-10T02:21:09;74829.88;;;-145.25;62.07
54146;BME280;40052;49.422;7.738;2022-07-10T02:23:36;74845.91;;;-145.25;62.73
54146;BME280;40052;49.422;7.738;2022-07-10T02:26:04;74831.88;;;-145.25;62.16
54146;BME280;40052;49.422;7.738;2022-07-10T02:28:29;74837.88;;;-145.25;62.19
54146;BME280;40052;49.422;7.738;2022-07-10T02:30:55;74847.91;;;-145.25;62.66
54146;BME280;40052;49.422;7.738;2022-07-10T02:33:23;74835.88;;;-145.25;62.76
54146;BME280;40052;49.422;7.738;2022-07-10T02:35:50;74829.88;;;-145.25;62.24
54146;BME280;40052;49.422;7.738;2022-07-10T02:38:16;74829.88;;;-145.25;62.53
54146;BME280;40052;49.422;7.738;2022-07-10T02:40:41;74859.91;;;-145.25;62.25
54146;BME280;40052;49.422;7.738;2022-07-10T02:43:07;74867.94;;;-145.25;62.76
54146;BME280;40052;49.422;7.738;2022-07-10T02:45:32;74898.00;;;-145.25;63.62
54146;BME280;40052;49.422;7.738;2022-07-10T02:48:00;74902.00;;;-145.25;64.13
54146;BME280;40052;49.422;7.738;2022-07-10T02:50:30;74896.00;;;-145.25;63.50
54146;BME280;40052;49.422;7.738;2022-07-10T02:52:55;74892.00;;;-145.25;63.34
54146;BME280;40052;49.422;7.738;2022-07-10T02:55:23;74889.97;;;-145.25;62.88
54146;BME280;40052;49.422;7.738;2022-07-10T02:57:51;74900.00;;;-145.25;63.09
54146;BME280;40052;49.422;7.738;2022-07-10T03:00:17;74934.06;;;-145.25;64.16
54146;BME280;40052;49.422;7.738;2022-07-10T03:02:42;74930.06;;;-145.25;64.05
54146;BME280;40052;49.422;7.738;2022-07-10T03:05:08;74938.09;;;-145.25;64.75
54146;BME280;40052;49.422;7.738;2022-07-10T03:07:33;74958.13;;;-145.25;65.33
54146;BME280;40052;49.422;7.738;2022-07-10T03:09:59;74976.16;;;-145.25;65.57
54146;BME280;40052;49.422;7.738;2022-07-10T03:12:24;74994.19;;;-145.25;65.41
54146;BME280;40052;49.422;7.738;2022-07-10T03:14:52;74986.19;;;-145.25;66.13
54146;BME280;40052;49.422;7.738;2022-07-10T03:17:18;74974.16;;;-145.25;65.74
54146;BME280;40052;49.422;7.738;2022-07-10T03:19:43;74984.19;;;-145.25;65.38
54146;BME280;40052;49.422;7.738;2022-07-10T03:22:08;74994.19;;;-145.25;66.03
54146;BME280;40052;49.422;7.738;2022-07-10T03:24:36;75000.22;;;-145.25;65.86
54146;BME280;40052;49.422;7.738;2022-07-10T03:27:01;75022.25;;;-145.25;66.32
54146;BME280;40052;49.422;7.738;2022-07-10T03:29:27;75024.25;;;-145.25;66.77
54146;BME280;40052;49.422;7.738;2022-07-10T03:31:55;75028.25;;;-145.25;66.74
54146;BME280;40052;49.422;7.738;2022-07-10T03:34:20;75022.25;;;-145.25;66.18
54146;BME280;40052;49.422;7.738;2022-07-10T03:36:45;75014.25;;;-145.25;65.60
54146;BME280;40052;49.422;7.738;2022-07-10T03:39:11;75022.25;;;-145.25;65.33
54146;BME280;40052;49.422;7.738;2022-07-10T03:41:39;75014.25;;;-145.25;64.69
54146;BME280;40052;49.422;7.738;2022-07-10T03:44:07;75008.22;;;-145.25;63.82
54146;BME280;40052;49.422;7.738;2022-07-10T03:46:34;75006.22;;;-145.25;63.64
54146;BME280;40052;49.422;7.738;2022-07-10T03:48:59;75016.25;;;-145.25;63.50
54146;BME280;40052;49.422;7.738;2022-07-10T03:51:25;75034.28;;;-145.25;63.36
54146;BME280;40052;49.422;7.738;2022-07-10T03:53:55;75004.22;;;-145.25;63.02
54146;BME280;40052;49.422;7.738;2022-07-10T03:56:20;74986.19;;;-145.25;62.24
54146;BME280;40052;49.422;7.738;2022-07-10T03:59:04;74968.16;;;-145.25;62.07
54146;BME280;40052;49.422;7.738;2022-07-10T04:01:30;75026.25;;;-145.25;62.47
54146;BME280;40052;49.422;7.738;2022-07-10T04:04:00;75050.31;;;-145.25;62.47
54146;BME280;40052;49.422;7.738;2022-07-10T04:06:25;75056.31;;;-145.25;62.85
54146;BME280;40052;49.422;7.738;2022-07-10T04:08:53;75056.31;;;-145.25;63.37
54146;BME280;40052;49.422;7.738;2022-07-10T04:11:18;75040.28;;;-145.25;62.89
54146;BME280;40052;49.422;7.738;2022-07-10T04:13:44;75046.31;;;-145.25;62.71
54146;BME280;40052;49.422;7.738;2022-07-10T04:16:11;75038.28;;;-145.25;62.42
54146;BME280;40052;49.422;7.738;2022-07-10T04:18:41;75030.28;;;-145.25;62.56
54146;BME280;40052;49.422;7.738;2022-07-10T04:21:07;75024.25;;;-145.25;61.88
54146;BME280;40052;49.422;7.738;2022-07-10T04:23:35;75052.31;;;-145.25;62.15
54146;BME280;40052;49.422;7.738;2022-07-10T04:26:03;75038.28;;;-145.25;62.20
54146;BME280;40052;49.422;7.738;2022-07-10T04:28:31;75030.28;;;-145.25;61.65
54146;BME280;40052;49.422;7.738;2022-07-10T04:30:59;75034.28;;;-145.25;61.64
54146;BME280;40052;49.422;7.738;2022-07-10T04:33:27;75048.31;;;-145.25;61.94
54146;BME280;40052;49.422;7.738;2022-07-10T04:35:55;75010.22;;;-145.25;61.82
54146;BME280;40052;49.422;7.738;2022-07-10T04:38:20;75018.25;;;-145.25;61.33
54146;BME280;40052;49.422;7.738;2022-07-10T04:40:48;75026.25;;;-145.25;61.31
54146;BME280;40052;49.422;7.738;2022-07-10T04:43:13;75038.28;;;-145.25;62.00
54146;BME280;40052;49.422;7.738;2022-07-10T04:45:42;75038.28;;;-145.25;62.28
54146;BME280;40052;49.422;7.738;2022-07-10T04:48:10;75042.28;;;-145.25;61.91
54146;BME280;40052;49.422;7.738;2022-07-10T04:50:35;75042.28;;;-145.25;62.05
54146;BME280;40052;49.422;7.738;2022-07-10T04:53:01;75028.25;;;-145.25;61.61
54146;BME280;40052;49.422;7.738;2022-07-10T04:55:26;75004.22;;;-145.25;61.15
54146;BME280;40052;49.422;7.738;2022-07-10T04:57:52;75006.22;;;-145.25;61.04
54146;BME280;40052;49.422;7.738;2022-07-10T05:00:18;75006.22;;;-145.25;61.16
54146;BME280;40052;49.422;7.738;2022-07-10T05:02:43;75012.22;;;-145.25;61.43
54146;BME280;40052;49.422;7.738;2022-07-10T05:05:11;75002.22;;;-145.25;60.97
54146;BME280;40052;49.422;7.738;2022-07-10T05:07:38;75008.22;;;-145.25;61.34
54146;BME280;40052;49.422;7.738;2022-07-10T05:10:07;75000.22;;;-145.25;61.23
54146;BME280;40052;49.422;7.738;2022-07-10T05:12:35;75022.25;;;-145.25;60.70
54146;BME280;40052;49.422;7.738;2022-07-10T05:15:03;75006.22;;;-145.25;60.58
54146;BME280;40052;49.422;7.738;2022-07-10T05:17:32;75022.25;;;-145.25;61.21
54146;BME280;40052;49.422;7.738;2022-07-10T05:19:57;75016.25;;;-145.25;60.59
54146;BME280;40052;49.422;7.738;2022-07-10T05:22:23;75002.22;;;-145.25;60.64
54146;BME280;40052;49.422;7.738;2022-07-10T05:24:49;74994.19;;;-145.25;60.30
54146;BME280;40052;49.422;7.738;2022-07-10T05:27:15;75002.22;;;-145.25;60.60
54146;BME280;40052;49.422;7.738;2022-07-10T05:29:46;74986.19;;;-145.25;60.62
54146;BME280;40052;49.422;7.738;2022-07-10T05:32:15;74968.16;;;-145.25;59.75
54146;BME280;40052;49.422;7.738;2022-07-10T05:34:42;74976.16;;;-145.25;59.66
54146;BME280;40052;49.422;7.738;2022-07-10T05:37:10;74974.16;;;-145.25;59.44
54146;BME280;40052;49.422;7.738;2022-07-10T05:39:38;74992.19;;;-145.25;59.52
54146;BME280;40052;49.422;7.738;2022-07-10T05:42:04;74990.19;;;-145.25;59.73
54146;BME280;40052;49.422;7.738;2022-07-10T05:44:29;75000.22;;;-145.25;59.59
54146;BME280;40052;49.422;7.738;2022-07-10T05:46:55;75002.22;;;-145.25;59.41
54146;BME280;40052;49.422;7.738;2022-07-10T05:49:20;75018.25;;;-145.25;59.55
54146;BME280;40052;49.422;7.738;2022-07-10T05:51:45;75014.25;;;-145.25;59.57
54146;BME280;40052;49.422;7.738;2022-07-10T05:54:15;75004.22;;;-145.25;59.77
54146;BME280;40052;49.422;7.738;2022-07-10T05:56:41;74990.19;;;-145.25;59.35
54146;BME280;40052;49.422;7.738;2022-07-10T05:59:10;74958.13;;;-145.25;59.04
54146;BME280;40052;49.422;7.738;2022-07-10T06:01:37;74946.09;;;-145.25;58.76
54146;BME280;40052;49.422;7.738;2022-07-10T06:04:03;74938.09;;;-145.25;58.40
54146;BME280;40052;49.422;7.738;2022-07-10T06:06:28;74926.06;;;-145.25;58.10
54146;BME280;40052;49.422;7.738;2022-07-10T06:08:54;74940.09;;;-145.25;57.72
54146;BME280;40052;49.422;7.738;2022-07-10T06:11:20;74930.06;;;-145.25;57.71
54146;BME280;40052;49.422;7.738;2022-07-10T06:13:48;74926.06;;;-145.25;57.45
54146;BME280;40052;49.422;7.738;2022-07-10T06:16:13;74902.00;;;-145.25;56.70
54146;BME280;40052;49.422;7.738;2022-07-10T06:18:38;74914.03;;;-145.25;56.17
54146;BME280;40052;49.422;7.738;2022-07-10T06:21:04;74889.97;;;-145.25;54.91
54146;BME280;40052;49.422;7.738;2022-07-10T06:23:29;74863.94;;;-145.25;53.76
54146;BME280;40052;49.422;7.738;2022-07-10T06:25:55;74869.94;;;-145.25;54.34
54146;BME280;40052;49.422;7.738;2022-07-10T06:28:20;74863.94;;;-145.25;54.24
54146;BME280;40052;49.422;7.738;2022-07-10T06:30:48;74883.97;;;-145.25;54.68
54146;BME280;40052;49.422;7.738;2022-07-10T06:33:13;74906.00;;;-145.25;54.53
54146;BME280;40052;49.422;7.738;2022-07-10T06:35:41;74922.06;;;-145.25;54.47
54146;BME280;40052;49.422;7.738;2022-07-10T06:38:09;74926.06;;;-145.25;54.59
54146;BME280;40052;49.422;7.738;2022-07-10T06:40:36;74910.03;;;-145.25;55.39
54146;BME280;40052;49.422;7.738;2022-07-10T06:43:02;74910.03;;;-145.25;54.91
54146;BME280;40052;49.422;7.738;2022-07-10T06:45:30;74916.03;;;-145.25;54.45
54146;BME280;40052;49.422;7.738;2022-07-10T06:47:55;74934.06;;;-145.25;54.34
54146;BME280;40052;49.422;7.738;2022-07-10T06:50:21;74924.06;;;-145.25;54.51
54146;BME280;40052;49.422;7.738;2022-07-10T06:52:48;74898.00;;;-145.25;54.78
54146;BME280;40052;49.422;7.738;2022-07-10T06:55:16;74904.00;;;-145.25;54.28
54146;BME280;40052;49.422;7.738;2022-07-10T06:57:41;74873.94;;;-145.25;53.97
54146;BME280;40052;49.422;7.738;2022-07-10T07:00:07;74827.84;;;-145.25;53.02
54146;BME280;40052;49.422;7.738;2022-07-10T07:02:36;74793.78;;;-145.25;49.75
54146;BME280;40052;49.422;7.738;2022-07-10T07:05:02;74777.75;;;-145.25;48.80
54146;BME280;40052;49.422;7.738;2022-07-10T07:07:27;74789.78;;;-145.25;48.87
54146;BME280;40052;49.422;7.738;2022-07-10T07:09:53;74785.78;;;-145.25;49.37
54146;BME280;40052;49.422;7.738;2022-07-10T07:12:18;74775.75;;;-145.25;49.05
54146;BME280;40052;49.422;7.738;2022-07-10T07:14:46;74747.69;;;-145.25;48.11
54146;BME280;40052;49.422;7.738;2022-07-10T07:17:16;74737.69;;;-145.25;47.42
54146;BME280;40052;49.422;7.738;2022-07-10T07:19:48;74757.72;;;-145.25;47.99
54146;BME280;40052;49.422;7.738;2022-07-10T07:22:32;74727.66;;;-145.25;46.85
54146;BME280;40052;49.422;7.738;2022-07-10T07:25:16;74765.72;;;-145.25;46.40
54146;BME280;40052;49.422;7.738;2022-07-10T07:27:41;74777.75;;;-145.25;46.97
54146;BME280;40052;49.422;7.738;2022-07-10T07:30:09;74779.75;;;-145.25;47.11
54146;BME280;40052;49.422;7.738;2022-07-10T07:32:36;74775.75;;;-145.25;47.28
54146;BME280;40052;49.422;7.738;2022-07-10T07:35:05;74757.72;;;-145.25;47.40
54146;BME280;40052;49.422;7.738;2022-07-10T07:37:46;74737.69;;;-145.25;48.23
54146;BME280;40052;49.422;7.738;2022-07-10T07:40:18;74735.69;;;-145.25;48.24
54146;BME280;40052;49.422;7.738;2022-07-10T07:42:47;74741.69;;;-145.25;48.26
54146;BME280;40052;49.422;7.738;2022-07-10T07:45:12;74811.81;;;-145.25;49.00
54146;BME280;40052;49.422;7.738;2022-07-10T07:50:17;74795.78;;;-145.25;48.18
54146;BME280;40052;49.422;7.738;2022-07-10T07:52:46;74807.81;;;-145.25;47.77
54146;BME280;40052;49.422;7.738;2022-07-10T07:55:18;74807.81;;;-145.25;47.51
54146;BME280;40052;49.422;7.738;2022-07-10T07:57:46;74805.81;;;-145.25;47.57
54146;BME280;40052;49.422;7.738;2022-07-10T08:00:14;74821.84;;;-145.25;47.95
54146;BME280;40052;49.422;7.738;2022-07-10T08:02:42;74805.81;;;-145.25;47.79
54146;BME280;40052;49.422;7.738;2022-07-10T08:05:08;74783.78;;;-145.25;47.00
54146;BME280;40052;49.422;7.738;2022-07-10T08:07:43;74773.75;;;-145.25;46.81
54146;BME280;40052;49.422;7.738;2022-07-10T08:10:10;74753.72;;;-145.25;46.37
54146;BME280;40052;49.422;7.738;2022-07-10T08:12:38;74711.63;;;-145.25;46.04
54146;BME280;40052;49.422;7.738;2022-07-10T08:15:09;74663.53;;;-145.25;45.69
54146;BME280;40052;49.422;7.738;2022-07-10T08:17:34;74613.44;;;-145.25;45.42
54146;BME280;40052;49.422;7.738;2022-07-10T08:20:00;74593.38;;;-145.25;44.87
54146;BME280;40052;49.422;7.738;2022-07-10T08:22:26;74575.34;;;-145.25;44.19
54146;BME280;40052;49.422;7.738;2022-07-10T08:24:51;74575.34;;;-145.25;43.61
54146;BME280;40052;49.422;7.738;2022-07-10T08:27:19;74577.34;;;-145.25;43.79
54146;BME280;40052;49.422;7.738;2022-07-10T08:29:45;74559.31;;;-145.25;43.20
54146;BME280;40052;49.422;7.738;2022-07-10T08:32:10;74577.34;;;-145.25;42.89
54146;BME280;40052;49.422;7.738;2022-07-10T08:34:40;74579.38;;;-145.25;43.30
54146;BME280;40052;49.422;7.738;2022-07-10T08:37:08;74605.41;;;-145.25;43.93
54146;BME280;40052;49.422;7.738;2022-07-10T08:39:33;74589.38;;;-145.25;43.58
54146;BME280;40052;49.422;7.738;2022-07-10T08:41:59;74571.34;;;-145.25;43.64
54146;BME280;40052;49.422;7.738;2022-07-10T08:44:30;74561.31;;;-145.25;43.34
54146;BME280;40052;49.422;7.738;2022-07-10T08:47:00;74519.25;;;-145.25;42.81
54146;BME280;40052;49.422;7.738;2022-07-10T08:49:28;74471.16;;;-145.25;42.32
54146;BME280;40052;49.422;7.738;2022-07-10T08:54:53;74455.13;;;-145.25;41.98
54146;BME280;40052;49.422;7.738;2022-07-10T08:57:19;74475.16;;;-145.25;42.57
54146;BME280;40052;49.422;7.738;2022-07-10T08:59:45;74469.16;;;-145.25;42.26
54146;BME280;40052;49.422;7.738;2022-07-10T09:02:14;74457.13;;;-145.25;42.41
54146;BME280;40052;49.422;7.738;2022-07-10T09:04:41;74471.16;;;-145.25;42.61
54146;BME280;40052;49.422;7.738;2022-07-10T09:07:08;74539.28;;;-145.25;43.53
54146;BME280;40052;49.422;7.738;2022-07-10T09:09:53;74613.44;;;-145.25;43.99
54146;BME280;40052;49.422;7.738;2022-07-10T09:12:21;74557.31;;;-145.25;44.04
54146;BME280;40052;49.422;7.738;2022-07-10T09:14:47;74515.25;;;-145.25;43.55
54146;BME280;40052;49.422;7.738;2022-07-10T09:17:15;74465.13;;;-145.25;42.79
54146;BME280;40052;49.422;7.738;2022-07-10T09:19:41;74483.19;;;-145.25;42.20
54146;BME280;40052;49.422;7.738;2022-07-10T09:22:10;74411.03;;;-145.25;41.64
54146;BME280;40052;49.422;7.738;2022-07-10T09:24:39;74352.94;;;-145.25;40.54
54146;BME280;40052;49.422;7.738;2022-07-10T09:27:06;74399.00;;;-145.25;40.34
54146;BME280;40052;49.422;7.738;2022-07-10T09:29:32;74501.22;;;-145.25;40.95
54146;BME280;40052;49.422;7.738;2022-07-10T09:31:59;74511.22;;;-145.25;41.77
54146;BME280;40052;49.422;7.738;2022-07-10T09:34:47;74441.09;;;-145.25;41.27
54146;BME280;40052;49.422;7.738;2022-07-10T09:37:24;74419.06;;;-145.25;40.99
54146;BME280;40052;49.422;7.738;2022-07-10T09:40:00;74358.94;;;-145.25;40.07
54146;BME280;40052;49.422;7.738;2022-07-10T09:45:23;74326.88;;;-145.25;39.47
54146;BME280;40052;49.422;7.738;2022-07-10T09:50:36;74272.78;;;-145.25;38.51
54146;BME280;40052;49.422;7.738;2022-07-10T09:53:08;74244.72;;;-145.25;38.45
54146;BME280;40052;49.422;7.738;2022-07-10T09:55:37;74244.72;;;-145.25;38.24
54146;BME280;40052;49.422;7.738;2022-07-10T09:58:07;74226.69;;;-145.25;37.89
54146;BME280;40052;49.422;7.738;2022-07-10T10:00:35;74230.69;;;-145.25;37.66
54146;BME280;40052;49.422;7.738;2022-07-10T10:03:07;74236.72;;;-145.25;38.40
54146;BME280;40052;49.422;7.738;2022-07-10T10:08:16;74140.53;;;-145.25;38.01
54146;BME280;40052;49.422;7.738;2022-07-10T10:10:49;74104.47;;;-145.25;36.72
54146;BME280;40052;49.422;7.738;2022-07-10T10:13:24;74098.44;;;-145.25;36.87
54146;BME280;40052;49.422;7.738;2022-07-10T10:15:53;74068.41;;;-145.25;36.55
54146;BME280;40052;49.422;7.738;2022-07-10T10:18:23;74058.38;;;-145.25;36.24
54146;BME280;40052;49.422;7.738;2022-07-10T10:20:50;74060.38;;;-145.25;36.08
54146;BME280;40052;49.422;7.738;2022-07-10T10:23:18;74052.38;;;-145.25;36.59
54146;BME280;40052;49.422;7.738;2022-07-10T10:28:14;74182.59;;;-145.25;37.76
54146;BME280;40052;49.422;7.738;2022-07-10T10:30:43;74152.56;;;-145.25;37.10
54146;BME280;40052;49.422;7.738;2022-07-10T10:35:56;74112.47;;;-145.25;37.22
54146;BME280;40052;49.422;7.738;2022-07-10T10:38:21;74096.44;;;-145.25;36.43
54146;BME280;40052;49.422;7.738;2022-07-10T10:40:49;74058.38;;;-145.25;36.33
54146;BME280;40052;49.422;7.738;2022-07-10T10:43:22;74038.34;;;-145.25;35.72
54146;BME280;40052;49.422;7.738;2022-07-10T10:45:53;74030.31;;;-145.25;36.23
54146;BME280;40052;49.422;7.738;2022-07-10T10:48:23;74056.38;;;-145.25;35.97
54146;BME280;40052;49.422;7.738;2022-07-10T10:50:53;74106.47;;;-145.25;36.11
54146;BME280;40052;49.422;7.738;2022-07-10T10:53:21;74112.47;;;-145.25;36.63
54146;BME280;40052;49.422;7.738;2022-07-10T10:58:46;74090.44;;;-145.25;36.34
54146;BME280;40052;49.422;7.738;2022-07-10T11:06:47;74074.41;;;-145.25;36.86
54146;BME280;40052;49.422;7.738;2022-07-10T11:12:06;74022.31;;;-145.25;36.29
54146;BME280;40052;49.422;7.738;2022-07-10T11:14:35;74056.38;;;-145.25;36.68
54146;BME280;40052;49.422;7.738;2022-07-10T11:17:02;74058.38;;;-145.25;36.57
54146;BME280;40052;49.422;7.738;2022-07-10T11:19:30;74014.31;;;-145.25;36.48
54146;BME280;40052;49.422;7.738;2022-07-10T11:22:10;73952.19;;;-145.25;35.65
54146;BME280;40052;49.422;7.738;2022-07-10T11:28:05;74026.31;;;-145.25;36.01
54146;BME280;40052;49.422;7.738;2022-07-10T11:30:47;74088.44;;;-145.25;36.52
54146;BME280;40052;49.422;7.738;2022-07-10T11:33:17;74032.34;;;-145.25;36.49
54146;BME280;40052;49.422;7.738;2022-07-10T11:35:47;74058.38;;;-145.25;36.52
54146;BME280;40052;49.422;7.738;2022-07-10T11:38:18;74038.34;;;-145.25;36.73
54146;BME280;40052;49.422;7.738;2022-07-10T11:40:46;73968.22;;;-145.25;36.52
54146;BME280;40052;49.422;7.738;2022-07-10T11:43:15;73886.06;;;-145.25;35.83
54146;BME280;40052;49.422;7.738;2022-07-10T11:45:44;73976.22;;;-145.25;36.34
54146;BME280;40052;49.422;7.738;2022-07-10T11:48:17;73944.16;;;-145.25;36.13
54146;BME280;40052;49.422;7.738;2022-07-10T11:50:44;74000.28;;;-145.25;36.24
54146;BME280;40052;49.422;7.738;2022-07-10T11:53:12;74018.31;;;-145.25;37.23
54146;BME280;40052;49.422;7.738;2022-07-10T11:55:37;73952.19;;;-145.25;36.08
54146;BME280;40052;49.422;7.738;2022-07-10T11:58:19;73946.19;;;-145.25;36.60
54146;BME280;40052;49.422;7.738;2022-07-10T12:00:57;73954.19;;;-145.25;36.55
54146;BME280;40052;49.422;7.738;2022-07-10T12:03:24;73982.25;;;-145.25;36.79
54146;BME280;40052;49.422;7.738;2022-07-10T12:05:51;74044.34;;;-145.25;37.62
54146;BME280;40052;49.422;7.738;2022-07-10T12:08:17;73986.25;;;-145.25;37.19
54146;BME280;40052;49.422;7.738;2022-07-10T12:10:43;73960.19;;;-145.25;37.04
54146;BME280;40052;49.422;7.738;2022-07-10T12:13:09;73934.16;;;-145.25;37.09
54146;BME280;40052;49.422;7.738;2022-07-10T12:15:41;73944.16;;;-145.25;36.94
54146;BME280;40052;49.422;7.738;2022-07-10T12:18:08;73980.25;;;-145.25;37.21
54146;BME280;40052;49.422;7.738;2022-07-10T12:20:35;74004.28;;;-145.25;37.04
54146;BME280;40052;49.422;7.738;2022-07-10T12:23:03;73906.09;;;-145.25;37.10
54146;BME280;40052;49.422;7.738;2022-07-10T12:25:29;73882.06;;;-145.25;36.20
54146;BME280;40052;49.422;7.738;2022-07-10T12:27:58;73864.03;;;-145.25;36.68
54146;BME280;40052;49.422;7.738;2022-07-10T12:30:44;73940.16;;;-145.25;36.70
54146;BME280;40052;49.422;7.738;2022-07-10T12:33:19;73994.25;;;-145.25;37.21
54146;BME280;40052;49.422;7.738;2022-07-10T12:35:48;73906.09;;;-145.25;36.66
54146;BME280;40052;49.422;7.738;2022-07-10T12:38:22;73884.06;;;-145.25;37.37
54146;BME280;40052;49.422;7.738;2022-07-10T12:40:51;73854.00;;;-145.25;36.34
54146;BME280;40052;49.422;7.738;2022-07-10T12:43:29;73791.91;;;-145.25;35.72
54146;BME280;40052;49.422;7.738;2022-07-10T12:48:35;73850.00;;;-145.25;36.16
54146;BME280;40052;49.422;7.738;2022-07-10T12:51:25;73767.84;;;-145.25;35.96
54146;BME280;40052;49.422;7.738;2022-07-10T12:53:51;73739.81;;;-145.25;35.15
54146;BME280;40052;49.422;7.738;2022-07-10T12:58:59;73759.84;;;-145.25;35.56
54146;BME280;40052;49.422;7.738;2022-07-10T13:01:48;73874.03;;;-145.25;36.40
54146;BME280;40052;49.422;7.738;2022-07-10T13:04:13;73858.03;;;-145.25;36.79
54146;BME280;40052;49.422;7.738;2022-07-10T13:06:39;73813.94;;;-145.25;36.14
54146;BME280;40052;49.422;7.738;2022-07-10T13:09:25;73815.94;;;-145.25;35.82
54146;BME280;40052;49.422;7.738;2022-07-10T13:11:51;73779.88;;;-145.25;35.58
54146;BME280;40052;49.422;7.738;2022-07-10T13:14:18;73870.03;;;-145.25;36.42
54146;BME280;40052;49.422;7.738;2022-07-10T13:16:47;73904.09;;;-145.25;37.29
54146;BME280;40052;49.422;7.738;2022-07-10T13:19:13;73886.06;;;-145.25;37.50
54146;BME280;40052;49.422;7.738;2022-07-10T13:21:38;73823.97;;;-145.25;36.62
54146;BME280;40052;49.422;7.738;2022-07-10T13:24:04;73799.91;;;-145.25;36.27